地図

経路データ

SID SEASON NUMBER BASIN SUBBASIN NAME ISO_TIME NATURE LAT LON WMO_WIND WMO_PRES WMO_AGENCY TRACK_TYPE DIST2LAND LANDFALL IFLAG USA_AGENCY USA_ATCF_ID USA_LAT USA_LON USA_RECORD USA_STATUS USA_WIND USA_PRES USA_SSHS USA_R34_NE USA_R34_SE USA_R34_SW USA_R34_NW USA_R50_NE USA_R50_SE USA_R50_SW USA_R50_NW USA_R64_NE USA_R64_SE USA_R64_SW USA_R64_NW USA_POCI USA_ROCI USA_RMW USA_EYE TOKYO_LAT TOKYO_LON TOKYO_GRADE TOKYO_WIND TOKYO_PRES TOKYO_R50_DIR TOKYO_R50_LONG TOKYO_R50_SHORT TOKYO_R30_DIR TOKYO_R30_LONG TOKYO_R30_SHORT TOKYO_LAND CMA_LAT CMA_LON CMA_CAT CMA_WIND CMA_PRES HKO_LAT HKO_LON HKO_CAT HKO_WIND HKO_PRES NEWDELHI_LAT NEWDELHI_LON NEWDELHI_GRADE NEWDELHI_WIND NEWDELHI_PRES NEWDELHI_CI NEWDELHI_DP NEWDELHI_POCI REUNION_LAT REUNION_LON REUNION_TYPE REUNION_WIND REUNION_PRES REUNION_TNUM REUNION_CI REUNION_RMW REUNION_R34_NE REUNION_R34_SE REUNION_R34_SW REUNION_R34_NW REUNION_R50_NE REUNION_R50_SE REUNION_R50_SW REUNION_R50_NW REUNION_R64_NE REUNION_R64_SE REUNION_R64_SW REUNION_R64_NW BOM_LAT BOM_LON BOM_TYPE BOM_WIND BOM_PRES BOM_TNUM BOM_CI BOM_RMW BOM_R34_NE BOM_R34_SE BOM_R34_SW BOM_R34_NW BOM_R50_NE BOM_R50_SE BOM_R50_SW BOM_R50_NW BOM_R64_NE BOM_R64_SE BOM_R64_SW BOM_R64_NW BOM_ROCI BOM_POCI BOM_EYE BOM_POS_METHOD BOM_PRES_METHOD NADI_LAT NADI_LON NADI_CAT NADI_WIND NADI_PRES WELLINGTON_LAT WELLINGTON_LON WELLINGTON_WIND WELLINGTON_PRES DS824_LAT DS824_LON DS824_STAGE DS824_WIND DS824_PRES TD9636_LAT TD9636_LON TD9636_STAGE TD9636_WIND TD9636_PRES TD9635_LAT TD9635_LON TD9635_WIND TD9635_PRES TD9635_ROCI NEUMANN_LAT NEUMANN_LON NEUMANN_CLASS NEUMANN_WIND NEUMANN_PRES MLC_LAT MLC_LON MLC_CLASS MLC_WIND MLC_PRES USA_GUST BOM_GUST BOM_GUST_PER REUNION_GUST REUNION_GUST_PER USA_SEAHGT USA_SEARAD_NE USA_SEARAD_SE USA_SEARAD_SW USA_SEARAD_NW STORM_SPEED STORM_DIR
1911032S14417 1911 8 SI MM NOT_NAMED 1911-01-31 18:00:00 NR -14.0000 57.3000 main 682 672 __________O___ -1 -14.0000 57.3000 7 6 235
1911032S14417 1911 8 SI MM NOT_NAMED 1911-01-31 21:00:00 NR -14.1581 57.0660 main 661 652 __________P___ -1 -14.1581 57.0660 7 5 235
1911032S14417 1911 8 SI MM NOT_NAMED 1911-02-01 00:00:00 NR -14.3128 56.8454 main 653 632 __________P___ -1 -14.3128 56.8454 7 5 233
1911032S14417 1911 8 SI MM NOT_NAMED 1911-02-01 03:00:00 NR -14.4611 56.6521 main 632 624 __________P___ -1 -14.4611 56.6521 7 4 229
1911032S14417 1911 8 SI MM NOT_NAMED 1911-02-01 06:00:00 NR -14.6000 56.5000 main 624 613 __________O___ -1 -14.6000 56.5000 7 4 223
1911032S14417 1911 8 SI MM NOT_NAMED 1911-02-01 09:00:00 NR -14.7280 56.3970 main 615 604 __________P___ -1 -14.7280 56.3970 7 3 214
1911032S14417 1911 8 SI MM NOT_NAMED 1911-02-01 12:00:00 NR -14.8498 56.3272 main 606 584 __________P___ -1 -14.8498 56.3272 7 3 207
1911032S14417 1911 8 SI MM NOT_NAMED 1911-02-01 15:00:00 NR -14.9718 56.2689 main 584 576 __________P___ -1 -14.9718 56.2689 7 3 207
1911032S14417 1911 8 SI MM NOT_NAMED 1911-02-01 18:00:00 NR -15.1000 56.2000 main 576 565 __________O___ -1 -15.1000 56.2000 7 3 214
1911032S14417 1911 8 SI MM NOT_NAMED 1911-02-01 21:00:00 NR -15.2429 56.0773 main 567 549 __________P___ -1 -15.2429 56.0773 7 4 220
1911032S14417 1911 8 SI MM NOT_NAMED 1911-02-02 00:00:00 NR -15.3926 55.9426 main 552 541 __________P___ -1 -15.3926 55.9426 7 4 220
1911032S14417 1911 8 SI MM NOT_NAMED 1911-02-02 03:00:00 NR -15.5460 55.8116 main 545 527 __________P___ -1 -15.5460 55.8116 7 4 217
1911032S14417 1911 8 SI MM NOT_NAMED 1911-02-02 06:00:00 NR -15.7000 55.7000 main 527 517 __________O___ -1 -15.7000 55.7000 7 4 209
1911032S14417 1911 8 SI MM NOT_NAMED 1911-02-02 09:00:00 NR -15.8581 55.6324 main 511 500 __________P___ -1 -15.8581 55.6324 7 3 199
1911032S14417 1911 8 SI MM NOT_NAMED 1911-02-02 12:00:00 NR -16.0149 55.5849 main 500 484 __________P___ -1 -16.0149 55.5849 7 3 196
1911032S14417 1911 8 SI MM NOT_NAMED 1911-02-02 15:00:00 NR -16.1643 55.5449 main 484 474 __________P___ -1 -16.1643 55.5449 7 3 196
1911032S14417 1911 8 SI MM NOT_NAMED 1911-02-02 18:00:00 NR -16.3000 55.5000 main 474 464 __________O___ -1 -16.3000 55.5000 7 3 206
1911032S14417 1911 8 SI MM NOT_NAMED 1911-02-02 21:00:00 NR -16.3941 55.4281 main 469 459 __________P___ -1 -16.3941 55.4281 7 2 219
1911032S14417 1911 8 SI MM NOT_NAMED 1911-02-03 00:00:00 NR -16.4775 55.3499 main 464 455 __________P___ -1 -16.4775 55.3499 7 2 219
1911032S14417 1911 8 SI MM NOT_NAMED 1911-02-03 03:00:00 NR -16.5722 55.2718 main 455 451 __________P___ -1 -16.5722 55.2718 7 3 213
1911032S14417 1911 8 SI MM NOT_NAMED 1911-02-03 06:00:00 NR -16.7000 55.2000 main 451 438 __________O___ -1 -16.7000 55.2000 7 3 202
1911032S14417 1911 8 SI MM NOT_NAMED 1911-02-03 09:00:00 NR -16.8891 55.1347 main 438 420 __________P___ -1 -16.8891 55.1347 7 4 196
1911032S14417 1911 8 SI MM NOT_NAMED 1911-02-03 12:00:00 NR -17.1125 55.0776 main 420 409 __________P___ -1 -17.1125 55.0776 7 5 192
1911032S14417 1911 8 SI MM NOT_NAMED 1911-02-03 15:00:00 NR -17.3547 55.0316 main 400 381 __________P___ -1 -17.3547 55.0316 7 5 189
1911032S14417 1911 8 SI MM NOT_NAMED 1911-02-03 18:00:00 NR -17.6000 55.0000 main 381 359 __________O___ -1 -17.6000 55.0000 7 5 185
1911032S14417 1911 8 SI MM NOT_NAMED 1911-02-03 21:00:00 NR -17.8291 54.9855 main 359 337 __________P___ -1 -17.8291 54.9855 7 5 183
1911032S14417 1911 8 SI MM NOT_NAMED 1911-02-04 00:00:00 NR -18.0575 54.9849 main 325 303 __________P___ -1 -18.0575 54.9849 7 5 0
1911032S14417 1911 8 SI MM NOT_NAMED 1911-02-04 03:00:00 NR -18.2822 54.9918 main 303 281 __________P___ -1 -18.2822 54.9918 7 4 0
1911032S14417 1911 8 SI MM NOT_NAMED 1911-02-04 06:00:00 NR -18.5000 55.0000 main 281 259 __________O___ -1 -18.5000 55.0000 7 4 178
1911032S14417 1911 8 SI MM NOT_NAMED 1911-02-04 09:00:00 NR -18.7153 54.9960 main 259 236 __________P___ -1 -18.7153 54.9960 7 4 0
1911032S14417 1911 8 SI MM NOT_NAMED 1911-02-04 12:00:00 NR -18.9225 54.9925 main 236 214 __________P___ -1 -18.9225 54.9925 7 4 182
1911032S14417 1911 8 SI MM NOT_NAMED 1911-02-04 15:00:00 NR -19.1184 54.9928 main 214 192 __________P___ -1 -19.1184 54.9928 7 4 0
1911032S14417 1911 8 SI MM NOT_NAMED 1911-02-04 18:00:00 NR -19.3000 55.0000 main 192 181 __________O___ -1 -19.3000 55.0000 7 3 0
1911032S14417 1911 8 SI MM NOT_NAMED 1911-02-04 21:00:00 NR -19.4400 55.0058 main 181 159 __________P___ -1 -19.4400 55.0058 7 3 174
1911032S14417 1911 8 SI MM NOT_NAMED 1911-02-05 00:00:00 NR -19.5700 55.0202 main 159 148 __________P___ -1 -19.5700 55.0202 7 3 173
1911032S14417 1911 8 SI MM NOT_NAMED 1911-02-05 03:00:00 NR -19.7150 55.0496 main 148 124 __________P___ -1 -19.7150 55.0496 7 3 166
1911032S14417 1911 8 SI MM NOT_NAMED 1911-02-05 06:00:00 NR -19.9000 55.1000 main 124 90 __________O___ -1 -19.9000 55.1000 7 5 165
1911032S14417 1911 8 SI MM NOT_NAMED 1911-02-05 09:00:00 NR -20.1691 55.1742 main 90 55 __________P___ -1 -20.1691 55.1742 7 6 165
1911032S14417 1911 8 SI MM NOT_NAMED 1911-02-05 12:00:00 NR -20.4775 55.2698 main 55 22 __________P___ -1 -20.4775 55.2698 7 7 163
1911032S14417 1911 8 SI MM NOT_NAMED 1911-02-05 15:00:00 NR -20.7972 55.3805 main 22 0 __________P___ -1 -20.7972 55.3805 7 7 161
1911032S14417 1911 8 SI MM NOT_NAMED 1911-02-05 18:00:00 NR -21.1000 55.5000 main 0 0 __________O___ -1 -21.1000 55.5000 7 6 158
1911032S14417 1911 8 SI MM NOT_NAMED 1911-02-05 21:00:00 NR -21.3302 55.6060 main 0 0 __________P___ -1 -21.3302 55.6060 7 5 155
1911032S14417 1911 8 SI MM NOT_NAMED 1911-02-06 00:00:00 NR -21.5424 55.7206 main 15 15 __________P___ -1 -21.5424 55.7206 7 5 152
1911032S14417 1911 8 SI MM NOT_NAMED 1911-02-06 03:00:00 NR -21.7583 55.8499 main 49 49 __________P___ -1 -21.7583 55.8499 7 5 150
1911032S14417 1911 8 SI MM NOT_NAMED 1911-02-06 06:00:00 NR -22.0000 56.0000 main 78 78 __________O___ -1 -22.0000 56.0000 7 6 152
1911032S14417 1911 8 SI MM NOT_NAMED 1911-02-06 09:00:00 NR -22.3084 56.1702 main 118 118 __________P___ -1 -22.3084 56.1702 7 7 152
1911032S14417 1911 8 SI MM NOT_NAMED 1911-02-06 12:00:00 NR -22.6424 56.3624 main 157 157 __________P___ -1 -22.6424 56.3624 7 8 151
1911032S14417 1911 8 SI MM NOT_NAMED 1911-02-06 15:00:00 NR -22.9802 56.5734 main 206 206 __________P___ -1 -22.9802 56.5734 7 8 148
1911032S14417 1911 8 SI MM NOT_NAMED 1911-02-06 18:00:00 NR -23.3000 56.8000 main 245 245 __________O___ -1 -23.3000 56.8000 7 7 145
1911032S14417 1911 8 SI MM NOT_NAMED 1911-02-06 21:00:00 NR -23.5852 57.0389 main 284 284 __________P___ -1 -23.5852 57.0389 7 7 140
1911032S14417 1911 8 SI MM NOT_NAMED 1911-02-07 00:00:00 NR -23.8403 57.2871 main 319 319 __________P___ -1 -23.8403 57.2871 7 7 137
1911032S14417 1911 8 SI MM NOT_NAMED 1911-02-07 03:00:00 NR -24.0753 57.5417 main 358 358 __________P___ -1 -24.0753 57.5417 7 7 134
1911032S14417 1911 8 SI MM NOT_NAMED 1911-02-07 06:00:00 NR -24.3000 57.8000 main 392 __________O___ -1 -24.3000 57.8000 7 7 134

IBTrACS Databaseについて

本データベースは、米国NOAAが公開する1842年以降の世界の熱帯低気圧のベストトラックデータアーカイブInternational Best Track Archive for Climate Stewardship (IBTrACS)を、ウェブで閲覧しやすい形式に変換したものです。

最終更新日:2021-12-08